createdAt,value
2017-09-03T00:00:09.044Z,99.99
2017-09-03T00:01:30.869Z,99.99
2017-09-03T00:02:53.083Z,99.99
2017-09-03T00:04:15.393Z,99.99
2017-09-03T00:05:37.223Z,99.99
2017-09-03T00:06:59.453Z,99.99
2017-09-03T00:08:21.912Z,99.99
2017-09-03T00:09:43.813Z,99.99
2017-09-03T00:11:05.974Z,99.99
2017-09-03T00:12:27.793Z,99.99
2017-09-03T00:13:50.263Z,99.99
2017-09-03T00:15:12.112Z,99.99
2017-09-03T00:16:33.937Z,99.99
2017-09-03T00:17:55.124Z,99.99
2017-09-03T00:19:16.665Z,99.99
2017-09-03T00:20:39.127Z,99.99
2017-09-03T00:22:01.700Z,99.99
2017-09-03T00:23:23.515Z,99.99
2017-09-03T00:24:45.974Z,99.99
2017-09-03T00:26:08.118Z,99.99
2017-09-03T00:27:29.611Z,99.99
2017-09-03T00:28:51.423Z,99.99
2017-09-03T00:30:13.922Z,99.99
2017-09-03T00:31:36.077Z,99.99
2017-09-03T00:32:58.054Z,99.99
2017-09-03T00:34:19.549Z,99.99
2017-09-03T00:35:41.758Z,99.99
2017-09-03T00:37:04.268Z,99.99
2017-09-03T00:38:26.093Z,99.99
2017-09-03T00:39:47.601Z,99.99
2017-09-03T00:41:09.415Z,99.99
2017-09-03T00:42:31.574Z,99.99
2017-09-03T00:43:53.394Z,99.99
2017-09-03T00:45:15.543Z,99.99
2017-09-03T00:46:37.345Z,99.99
2017-09-03T00:47:59.894Z,99.99
2017-09-03T00:49:22.054Z,99.99
2017-09-03T00:50:44.563Z,99.99
2017-09-03T00:52:07.406Z,99.99
2017-09-03T00:53:29.692Z,99.99
2017-09-03T00:54:51.514Z,99.99
2017-09-03T00:56:12.793Z,99.99
2017-09-03T00:57:34.544Z,99.99
2017-09-03T00:58:56.482Z,99.99
2017-09-03T01:00:18.950Z,99.99
2017-09-03T01:01:41.205Z,99.99
2017-09-03T01:03:03.294Z,99.99
2017-09-03T01:04:25.273Z,99.99
2017-09-03T01:05:47.443Z,99.99
2017-09-03T01:07:08.957Z,99.99
2017-09-03T01:08:31.776Z,99.99
2017-09-03T01:09:54.325Z,99.99
2017-09-03T01:11:16.505Z,99.99
2017-09-03T01:12:37.994Z,99.99
2017-09-03T01:14:00.404Z,99.99
2017-09-03T01:15:22.887Z,99.99
2017-09-03T01:16:45.413Z,99.99
2017-09-03T01:18:07.256Z,99.99
2017-09-03T01:19:29.415Z,99.99
2017-09-03T01:20:51.682Z,99.99
2017-09-03T01:22:13.513Z,99.99
2017-09-03T01:23:35.655Z,99.99
2017-09-03T01:24:58.122Z,99.99
2017-09-03T01:26:19.953Z,99.99
2017-09-03T01:27:41.613Z,99.99
2017-09-03T01:29:03.436Z,99.99
2017-09-03T01:30:25.203Z,99.99
2017-09-03T01:31:46.706Z,99.99
2017-09-03T01:33:08.224Z,99.99
2017-09-03T01:34:30.673Z,99.99
2017-09-03T01:35:53.182Z,99.99
2017-09-03T01:37:14.704Z,99.99
2017-09-03T01:38:37.171Z,99.99
2017-09-03T01:39:59.365Z,99.99
2017-09-03T01:41:21.158Z,99.99
2017-09-03T01:42:42.968Z,99.99
2017-09-03T01:44:05.151Z,99.99
2017-09-03T01:45:27.082Z,99.99
2017-09-03T01:46:48.887Z,99.99
2017-09-03T01:48:10.714Z,99.99
2017-09-03T01:49:32.540Z,99.99
2017-09-03T01:50:55.016Z,99.99
2017-09-03T01:52:17.270Z,99.99
2017-09-03T01:53:39.402Z,99.99
2017-09-03T01:55:01.984Z,99.99
2017-09-03T01:56:24.138Z,99.99
2017-09-03T01:57:46.693Z,99.99
2017-09-03T01:59:09.160Z,99.99
2017-09-03T02:00:30.993Z,99.99
2017-09-03T02:01:53.299Z,99.99
2017-09-03T02:03:15.152Z,99.99
2017-09-03T02:04:36.992Z,99.99
2017-09-03T02:05:58.801Z,99.99
2017-09-03T02:07:19.969Z,99.99
2017-09-03T02:08:42.143Z,99.99
2017-09-03T02:10:03.962Z,99.99
2017-09-03T02:11:25.788Z,99.99
2017-09-03T02:12:48.362Z,99.99
2017-09-03T02:14:10.525Z,99.99
2017-09-03T02:15:32.026Z,99.99
2017-09-03T02:16:54.182Z,99.99
2017-09-03T02:18:16.002Z,99.99
2017-09-03T02:19:38.197Z,99.99
2017-09-03T02:21:00.465Z,99.99
2017-09-03T02:22:22.933Z,99.99
2017-09-03T02:23:45.154Z,99.99
2017-09-03T02:25:07.224Z,99.99
2017-09-03T02:26:29.036Z,99.99
2017-09-03T02:27:51.180Z,99.99
2017-09-03T02:29:12.672Z,99.99
2017-09-03T02:30:34.537Z,99.99
2017-09-03T02:31:56.033Z,99.99
2017-09-03T02:33:18.179Z,99.99
2017-09-03T02:34:40.334Z,99.99
2017-09-03T02:36:02.963Z,99.99
2017-09-03T02:37:24.142Z,99.99
2017-09-03T02:38:46.322Z,99.99
2017-09-03T02:40:08.474Z,99.99
2017-09-03T02:41:30.901Z,99.99
2017-09-03T02:42:52.413Z,99.99
2017-09-03T02:44:14.626Z,99.99
2017-09-03T02:45:36.438Z,99.99
2017-09-03T02:46:58.933Z,99.99
2017-09-03T02:48:20.432Z,99.99
2017-09-03T02:49:41.932Z,99.99
2017-09-03T02:51:04.200Z,99.99
2017-09-03T02:52:26.383Z,99.99
2017-09-03T02:53:48.513Z,99.99
2017-09-03T02:55:10.342Z,99.99
2017-09-03T02:56:32.152Z,99.99
2017-09-03T02:57:54.352Z,99.99
2017-09-03T02:59:15.923Z,99.99
2017-09-03T03:00:37.766Z,99.99
2017-09-03T03:01:59.922Z,99.99
2017-09-03T03:03:22.202Z,99.99
2017-09-03T03:04:44.165Z,99.99
2017-09-03T03:06:06.345Z,99.99
2017-09-03T03:07:28.488Z,99.99
2017-09-03T03:08:50.980Z,99.99
2017-09-03T03:10:12.153Z,99.99
2017-09-03T03:11:34.030Z,99.99
2017-09-03T03:12:55.873Z,99.99
2017-09-03T03:14:17.641Z,99.99
2017-09-03T03:15:39.144Z,99.99
2017-09-03T03:17:01.277Z,99.99
2017-09-03T03:18:23.760Z,99.99
2017-09-03T03:19:45.931Z,99.99
2017-09-03T03:21:08.256Z,99.99
2017-09-03T03:22:30.183Z,99.99
2017-09-03T03:23:52.352Z,99.99
2017-09-03T03:25:14.810Z,99.99
2017-09-03T03:26:36.652Z,99.99
2017-09-03T03:27:58.801Z,99.99
2017-09-03T03:29:21.251Z,99.99
2017-09-03T03:30:43.424Z,99.99
2017-09-03T03:32:05.242Z,99.99
2017-09-03T03:33:27.073Z,99.99
2017-09-03T03:34:48.902Z,99.99
2017-09-03T03:36:10.776Z,99.99
2017-09-03T03:37:32.264Z,99.99
2017-09-03T03:38:54.078Z,99.99
2017-09-03T03:40:15.582Z,99.99
2017-09-03T03:41:37.710Z,99.99
2017-09-03T03:42:59.200Z,99.99
2017-09-03T03:44:21.350Z,99.99
2017-09-03T03:45:43.184Z,99.99
2017-09-03T03:47:05.393Z,99.99
2017-09-03T03:48:27.530Z,99.99
2017-09-03T03:49:49.768Z,99.99
2017-09-03T03:51:11.090Z,99.99
2017-09-03T03:52:33.917Z,99.99
2017-09-03T03:53:56.061Z,99.99
2017-09-03T03:55:18.212Z,99.99
2017-09-03T03:56:40.357Z,99.99
2017-09-03T03:58:02.861Z,99.99
2017-09-03T03:59:24.702Z,99.99
2017-09-03T04:00:46.533Z,99.99
2017-09-03T04:02:08.353Z,99.99
2017-09-03T04:03:30.742Z,99.99
2017-09-03T04:04:53.354Z,99.99
2017-09-03T04:06:15.493Z,99.99
2017-09-03T04:07:38.062Z,99.99
2017-09-03T04:08:59.793Z,99.99
2017-09-03T04:10:20.968Z,99.99
2017-09-03T04:11:43.182Z,99.99
2017-09-03T04:13:05.122Z,99.99
2017-09-03T04:14:27.284Z,99.99
2017-09-03T04:15:49.116Z,99.99
2017-09-03T04:17:11.265Z,99.99
2017-09-03T04:18:33.086Z,99.99
2017-09-03T04:19:55.907Z,99.99
2017-09-03T04:21:17.082Z,99.99
2017-09-03T04:22:39.233Z,99.99
2017-09-03T04:24:00.425Z,99.99
2017-09-03T04:25:22.314Z,99.99
2017-09-03T04:26:44.791Z,99.99
2017-09-03T04:28:06.612Z,99.99
2017-09-03T04:29:28.736Z,99.99
2017-09-03T04:30:50.863Z,99.99
2017-09-03T04:32:13.323Z,99.99
2017-09-03T04:33:35.783Z,99.99
2017-09-03T04:34:58.253Z,99.99
2017-09-03T04:36:20.401Z,99.99
2017-09-03T04:37:41.943Z,99.99
2017-09-03T04:39:03.808Z,99.99
2017-09-03T04:40:25.323Z,99.99
2017-09-03T04:41:47.744Z,99.99
2017-09-03T04:43:09.895Z,99.99
2017-09-03T04:44:31.850Z,99.99
2017-09-03T04:45:53.682Z,99.99
2017-09-03T04:47:15.483Z,99.99
2017-09-03T04:48:37.121Z,99.99
2017-09-03T04:49:58.643Z,99.99
2017-09-03T04:51:20.134Z,99.99
2017-09-03T04:52:42.572Z,99.99
2017-09-03T04:54:04.070Z,99.99
2017-09-03T04:55:25.900Z,99.99
2017-09-03T04:56:48.031Z,99.99
2017-09-03T04:58:10.524Z,99.99
2017-09-03T04:59:32.361Z,99.99
2017-09-03T05:00:54.504Z,99.99
2017-09-03T05:02:15.998Z,99.99
2017-09-03T05:03:38.186Z,99.99
2017-09-03T05:04:59.713Z,99.99
2017-09-03T05:06:21.856Z,99.99
2017-09-03T05:07:44.002Z,99.99
2017-09-03T05:09:06.439Z,99.99
2017-09-03T05:10:28.288Z,99.99
2017-09-03T05:11:50.445Z,99.99
2017-09-03T05:13:12.296Z,99.99
2017-09-03T05:14:34.483Z,99.99
2017-09-03T05:15:56.743Z,99.99
2017-09-03T05:17:18.573Z,99.99
2017-09-03T05:18:40.378Z,99.99
2017-09-03T05:20:01.931Z,99.99
2017-09-03T05:21:24.389Z,99.99
2017-09-03T05:22:46.342Z,99.99
2017-09-03T05:24:07.853Z,99.99
2017-09-03T05:25:30.593Z,99.99
2017-09-03T05:26:52.776Z,99.99
2017-09-03T05:28:14.935Z,99.99
2017-09-03T05:29:36.853Z,99.99
2017-09-03T05:30:58.704Z,99.99
2017-09-03T05:32:20.543Z,99.99
2017-09-03T05:33:42.040Z,99.99
2017-09-03T05:35:04.525Z,99.99
2017-09-03T05:36:27.053Z,99.99
2017-09-03T05:37:49.532Z,99.99
2017-09-03T05:39:11.700Z,99.99
2017-09-03T05:40:34.175Z,99.99
2017-09-03T05:41:56.453Z,99.99
2017-09-03T05:43:18.263Z,99.99
2017-09-03T05:44:39.124Z,99.99
2017-09-03T05:46:01.273Z,99.99
2017-09-03T05:47:23.023Z,99.99
2017-09-03T05:48:45.163Z,99.99
2017-09-03T05:50:07.008Z,99.99
2017-09-03T05:51:27.863Z,99.99
2017-09-03T05:52:50.065Z,99.99
2017-09-03T05:54:12.230Z,99.99
2017-09-03T05:55:34.092Z,99.99
2017-09-03T05:56:56.273Z,99.99
2017-09-03T05:58:18.444Z,99.99
2017-09-03T05:59:40.724Z,99.99
2017-09-03T06:01:02.880Z,99.99
2017-09-03T06:02:25.143Z,99.99
2017-09-03T06:03:47.891Z,99.99
2017-09-03T06:05:09.835Z,99.99
2017-09-03T06:06:31.978Z,98.24
2017-09-03T06:07:53.584Z,94.78
2017-09-03T06:09:16.101Z,92.71
2017-09-03T06:10:38.464Z,88.7
2017-09-03T06:12:00.622Z,86.14
2017-09-03T06:13:22.775Z,82.71
2017-09-03T06:14:45.599Z,79.75
2017-09-03T06:16:07.122Z,79.12
2017-09-03T06:17:29.595Z,77.48
2017-09-03T06:18:51.863Z,76.9
2017-09-03T06:20:14.282Z,76.9
2017-09-03T06:21:36.163Z,76.55
2017-09-03T06:22:58.403Z,74.9
2017-09-03T06:24:19.945Z,74.27
2017-09-03T06:25:42.076Z,73.04
2017-09-03T06:27:03.673Z,72.02
2017-09-03T06:28:25.343Z,70.79
2017-09-03T06:29:47.830Z,70.83
2017-09-03T06:31:10.022Z,69.37
2017-09-03T06:32:32.566Z,68.82
2017-09-03T06:33:54.703Z,67.57
2017-09-03T06:35:16.874Z,67.21
2017-09-03T06:36:39.382Z,67.31
2017-09-03T06:38:01.591Z,66.72
2017-09-03T06:39:23.433Z,66.37
2017-09-03T06:40:44.953Z,65.33
2017-09-03T06:42:07.487Z,65.17
2017-09-03T06:43:28.703Z,65.27
2017-09-03T06:44:50.578Z,64.59
2017-09-03T06:46:13.077Z,64.23
2017-09-03T06:47:35.302Z,63.36
2017-09-03T06:48:57.473Z,63.17
2017-09-03T06:50:19.103Z,63.2
2017-09-03T06:51:40.934Z,62.54
2017-09-03T06:53:03.503Z,61.02
2017-09-03T06:54:25.668Z,60.14
2017-09-03T06:55:47.516Z,59.46
2017-09-03T06:57:10.024Z,60.17
2017-09-03T06:58:32.172Z,59.42
2017-09-03T06:59:54.037Z,58.84
2017-09-03T07:01:16.216Z,58.67
2017-09-03T07:02:38.396Z,58.48
2017-09-03T07:04:00.830Z,58.77
2017-09-03T07:05:23.224Z,58.77
2017-09-03T07:06:45.065Z,58.28
2017-09-03T07:08:06.934Z,57.11
2017-09-03T07:09:29.785Z,57.14
2017-09-03T07:10:51.672Z,57.04
2017-09-03T07:12:13.974Z,57.24
2017-09-03T07:13:35.593Z,56.95
2017-09-03T07:14:57.424Z,58.31
2017-09-03T07:16:19.591Z,57.46
2017-09-03T07:17:41.433Z,57.26
2017-09-03T07:19:03.373Z,57.04
2017-09-03T07:20:26.221Z,57.34
2017-09-03T07:21:48.205Z,57.07
2017-09-03T07:23:09.422Z,57.36
2017-09-03T07:24:31.267Z,58.14
2017-09-03T07:25:53.525Z,57.36
2017-09-03T07:27:15.213Z,57.07
2017-09-03T07:28:36.407Z,57.56
2017-09-03T07:29:58.702Z,58.04
2017-09-03T07:31:20.913Z,57.26
2017-09-03T07:32:42.121Z,57.17
2017-09-03T07:34:04.282Z,58.31
2017-09-03T07:35:25.813Z,58.4
2017-09-03T07:36:48.654Z,58.7
2017-09-03T07:38:10.966Z,59.16
2017-09-03T07:39:33.505Z,59.55
2017-09-03T07:40:55.023Z,60.52
2017-09-03T07:42:17.234Z,60.3
2017-09-03T07:43:39.384Z,60.78
2017-09-03T07:45:01.894Z,60.98
2017-09-03T07:46:23.754Z,62.02
2017-09-03T07:47:46.268Z,65.75
2017-09-03T07:49:07.803Z,69.74
2017-09-03T07:50:29.973Z,74.26
2017-09-03T07:51:51.643Z,77.92
2017-09-03T07:53:13.801Z,81.73
2017-09-03T07:54:36.391Z,87.2
2017-09-03T07:55:58.758Z,89.53
2017-09-03T07:57:20.610Z,91.99
2017-09-03T07:58:42.511Z,94.68
2017-09-03T08:00:05.014Z,96.27
2017-09-03T08:01:27.206Z,96.22
2017-09-03T08:02:49.371Z,98.14
2017-09-03T08:04:12.163Z,98.68
2017-09-03T08:05:34.760Z,99.92
2017-09-03T08:06:56.622Z,99.49
2017-09-03T08:08:19.156Z,99.99
2017-09-03T08:09:41.614Z,99.78
2017-09-03T08:11:03.133Z,99.49
2017-09-03T08:12:25.303Z,98.24
2017-09-03T08:13:47.475Z,99.99
2017-09-03T08:15:10.244Z,96.75
2017-09-03T08:16:32.750Z,97.24
2017-09-03T08:17:54.606Z,97.61
2017-09-03T08:19:17.114Z,99.25
2017-09-03T08:20:39.623Z,97.71
2017-09-03T08:22:02.114Z,98.58
2017-09-03T08:23:24.381Z,99.82
2017-09-03T08:24:46.633Z,99.99
2017-09-03T08:26:08.831Z,99.99
2017-09-03T08:27:31.143Z,99.99
2017-09-03T08:28:53.333Z,99.99
2017-09-03T08:30:15.755Z,99.99
2017-09-03T08:31:38.496Z,99.99
2017-09-03T08:33:00.793Z,99.99
2017-09-03T08:34:22.964Z,99.99
2017-09-03T08:35:45.699Z,99.99
2017-09-03T08:37:08.225Z,99.68
2017-09-03T08:38:30.542Z,98.82
2017-09-03T08:39:52.409Z,99.2
2017-09-03T08:41:14.867Z,99.49
2017-09-03T08:42:37.010Z,99.99
2017-09-03T08:43:59.563Z,97.42
2017-09-03T08:45:21.406Z,96.85
2017-09-03T08:46:43.574Z,97.52
2017-09-03T08:48:06.015Z,99.3
2017-09-03T08:49:28.533Z,99.49
2017-09-03T08:50:50.685Z,99.3
2017-09-03T08:52:12.269Z,97.86
2017-09-03T08:53:35.139Z,97.96
2017-09-03T08:54:56.652Z,99.58
2017-09-03T08:56:18.488Z,99.1
2017-09-03T08:57:40.359Z,98.34
2017-09-03T08:59:03.253Z,97.71
2017-09-03T09:00:24.934Z,93.92
2017-09-03T09:01:47.433Z,95.94
2017-09-03T09:03:09.647Z,95.36
2017-09-03T09:04:32.513Z,96.18
2017-09-03T09:05:54.353Z,97.81
2017-09-03T09:07:16.296Z,97.04
2017-09-03T09:08:38.140Z,95.84
2017-09-03T09:10:00.582Z,93.63
2017-09-03T09:11:23.084Z,93.63
2017-09-03T09:12:45.259Z,94.49
2017-09-03T09:14:07.456Z,94.11
2017-09-03T09:15:29.862Z,95.94
2017-09-03T09:16:52.496Z,93.34
2017-09-03T09:18:14.655Z,94.69
2017-09-03T09:19:36.842Z,93.39
2017-09-03T09:20:59.304Z,94.64
2017-09-03T09:22:21.288Z,95.4
2017-09-03T09:23:43.801Z,94.64
2017-09-03T09:25:05.637Z,96.13
2017-09-03T09:26:27.409Z,95.45
2017-09-03T09:27:49.883Z,91.75
2017-09-03T09:29:11.741Z,91.36
2017-09-03T09:30:33.891Z,88.19
2017-09-03T09:31:56.443Z,88.96
2017-09-03T09:33:18.594Z,90.36
2017-09-03T09:34:40.432Z,90.84
2017-09-03T09:36:02.899Z,91.18
2017-09-03T09:37:25.423Z,90.89
2017-09-03T09:38:47.232Z,90.22
2017-09-03T09:40:08.775Z,90.8
2017-09-03T09:41:30.673Z,92.43
2017-09-03T09:42:52.950Z,91.71
2017-09-03T09:44:15.445Z,90.45
2017-09-03T09:45:37.632Z,88.14
2017-09-03T09:46:59.481Z,86.02
2017-09-03T09:48:21.577Z,83.47
2017-09-03T09:49:43.774Z,84.81
2017-09-03T09:51:05.942Z,86.83
2017-09-03T09:52:27.814Z,86.45
2017-09-03T09:53:50.685Z,85.87
2017-09-03T09:55:12.862Z,86.35
2017-09-03T09:56:35.046Z,85.87
2017-09-03T09:57:57.203Z,84.53
2017-09-03T09:59:19.723Z,84.23
2017-09-03T10:00:41.575Z,81.25
2017-09-03T10:02:04.133Z,80.91
2017-09-03T10:03:25.982Z,82.83
2017-09-03T10:04:48.774Z,85.68
2017-09-03T10:06:11.123Z,82.64
2017-09-03T10:07:32.334Z,79.17
2017-09-03T10:08:54.838Z,81.04
2017-09-03T10:10:17.360Z,82.59
2017-09-03T10:11:39.554Z,82.59
2017-09-03T10:13:02.137Z,78.83
2017-09-03T10:14:24.446Z,77.19
2017-09-03T10:15:46.891Z,79.31
2017-09-03T10:17:09.098Z,77.19
2017-09-03T10:18:31.308Z,77.28
2017-09-03T10:19:53.492Z,76.32
2017-09-03T10:21:15.444Z,75.93
2017-09-03T10:22:36.993Z,76.03
2017-09-03T10:23:58.963Z,77.58
2017-09-03T10:25:20.862Z,77.96
2017-09-03T10:26:43.613Z,76.45
2017-09-03T10:28:05.463Z,76.84
2017-09-03T10:29:27.664Z,78.09
2017-09-03T10:30:49.604Z,79.44
2017-09-03T10:32:11.894Z,80.43
2017-09-03T10:33:33.614Z,82.12
2017-09-03T10:34:56.193Z,81.54
2017-09-03T10:36:18.353Z,81.02
2017-09-03T10:37:41.396Z,82.46
2017-09-03T10:39:03.264Z,83.56
2017-09-03T10:40:25.782Z,82.6
2017-09-03T10:41:47.345Z,84.1
2017-09-03T10:43:09.956Z,84.06
2017-09-03T10:44:32.143Z,84.1
2017-09-03T10:45:54.102Z,83.14
2017-09-03T10:47:15.979Z,83.56
2017-09-03T10:48:38.766Z,84.38
2017-09-03T10:50:00.959Z,82.64
2017-09-03T10:51:22.821Z,81.72
2017-09-03T10:52:45.012Z,82.97
2017-09-03T10:54:07.226Z,79.16
2017-09-03T10:55:29.185Z,75.82
2017-09-03T10:56:51.665Z,76.01
2017-09-03T10:58:14.166Z,75.85
2017-09-03T10:59:36.326Z,74.6
2017-09-03T11:00:58.214Z,76.43
2017-09-03T11:02:20.387Z,76.05
2017-09-03T11:03:42.656Z,74.54
2017-09-03T11:05:05.407Z,73.28
2017-09-03T11:06:28.084Z,73.86
2017-09-03T11:07:50.357Z,74.44
2017-09-03T11:09:12.816Z,73.96
2017-09-03T11:10:35.192Z,76.24
2017-09-03T11:11:58.177Z,76.15
2017-09-03T11:13:21.576Z,75.37
2017-09-03T11:14:44.784Z,77.21
2017-09-03T11:16:06.893Z,76.72
2017-09-03T11:17:29.374Z,75.47
2017-09-03T11:18:51.946Z,76.92
2017-09-03T11:20:14.458Z,76.59
2017-09-03T11:21:36.952Z,76.2
2017-09-03T11:22:59.426Z,78.81
2017-09-03T11:24:21.434Z,76.1
2017-09-03T11:25:43.918Z,78.86
2017-09-03T11:27:05.792Z,79.77
2017-09-03T11:28:28.277Z,78.33
2017-09-03T11:29:50.203Z,79.49
2017-09-03T11:31:12.185Z,77.13
2017-09-03T11:32:34.329Z,77.58
2017-09-03T11:33:56.483Z,78.83
2017-09-03T11:35:18.440Z,79.02
2017-09-03T11:36:40.338Z,78.73
2017-09-03T11:38:03.126Z,79.02
2017-09-03T11:39:25.723Z,77.58
2017-09-03T11:40:47.901Z,76.57
2017-09-03T11:42:10.704Z,79.08
2017-09-03T11:43:33.210Z,77.48
2017-09-03T11:44:55.389Z,77.92
2017-09-03T11:46:17.604Z,77.53
2017-09-03T11:47:39.765Z,77.53
2017-09-03T11:49:01.873Z,78.34
2017-09-03T11:50:24.059Z,78.25
2017-09-03T11:51:45.904Z,80.94
2017-09-03T11:53:07.874Z,79.02
2017-09-03T11:54:30.729Z,76.42
2017-09-03T11:55:52.898Z,76.9
2017-09-03T11:57:15.083Z,78.63
2017-09-03T11:58:36.305Z,79.74
2017-09-03T11:59:58.473Z,75.78
2017-09-03T12:01:20.444Z,76.17
2017-09-03T12:02:42.723Z,76.42
2017-09-03T12:04:05.042Z,74.49
2017-09-03T12:05:27.530Z,76.9
2017-09-03T12:06:49.412Z,80.08
2017-09-03T12:08:11.584Z,79.79
2017-09-03T12:09:33.443Z,79.5
2017-09-03T12:10:55.910Z,81.01
2017-09-03T12:12:17.753Z,80.85
2017-09-03T12:13:40.282Z,77.67
2017-09-03T12:15:01.809Z,80.66
2017-09-03T12:16:24.632Z,78.15
2017-09-03T12:17:46.245Z,74.68
2017-09-03T12:19:08.841Z,75.55
2017-09-03T12:20:31.325Z,75.45
2017-09-03T12:21:53.426Z,77.09
2017-09-03T12:23:15.623Z,75.74
2017-09-03T12:24:37.133Z,75.65
2017-09-03T12:25:58.343Z,75.45
2017-09-03T12:27:20.533Z,74.97
2017-09-03T12:28:42.044Z,75.1
2017-09-03T12:30:04.675Z,75.45
2017-09-03T12:31:26.701Z,75.97
2017-09-03T12:32:49.820Z,74.82
2017-09-03T12:34:12.022Z,76.07
2017-09-03T12:35:33.558Z,74.62
2017-09-03T12:36:54.752Z,74.43
2017-09-03T12:38:17.204Z,76.26
2017-09-03T12:39:39.685Z,75.3
2017-09-03T12:41:01.524Z,75.2
2017-09-03T12:42:23.054Z,76.75
2017-09-03T12:43:45.534Z,77.9
2017-09-03T12:45:08.033Z,77.75
2017-09-03T12:46:29.576Z,77.21
2017-09-03T12:47:51.733Z,75.76
2017-09-03T12:49:13.938Z,74.31
2017-09-03T12:50:36.117Z,72.52
2017-09-03T12:51:58.321Z,72.22
2017-09-03T12:53:20.703Z,73.19
2017-09-03T12:54:43.181Z,73.93
2017-09-03T12:56:05.702Z,75.22
2017-09-03T12:57:27.841Z,76.47
2017-09-03T12:58:50.020Z,73.58
2017-09-03T13:00:12.225Z,70.68
2017-09-03T13:01:34.403Z,70.29
2017-09-03T13:02:56.603Z,73.69
2017-09-03T13:04:18.887Z,74.27
2017-09-03T13:05:41.402Z,72.5
2017-09-03T13:07:03.681Z,72.89
2017-09-03T13:08:26.177Z,75.16
2017-09-03T13:09:48.723Z,75.9
2017-09-03T13:11:11.323Z,76.63
2017-09-03T13:12:33.203Z,78.71
2017-09-03T13:13:55.041Z,77.46
2017-09-03T13:15:17.281Z,79.48
2017-09-03T13:16:40.204Z,80.96
2017-09-03T13:18:01.751Z,80.1
2017-09-03T13:19:24.022Z,81.93
2017-09-03T13:20:45.595Z,82.5
2017-09-03T13:22:08.421Z,82.7
2017-09-03T13:23:30.608Z,82.93
2017-09-03T13:24:52.580Z,82.35
2017-09-03T13:26:15.083Z,76.32
2017-09-03T13:27:37.936Z,75.55
2017-09-03T13:29:00.447Z,76.32
2017-09-03T13:30:22.931Z,75.88
2017-09-03T13:31:44.783Z,75.34
2017-09-03T13:33:07.592Z,75.72
2017-09-03T13:34:29.121Z,73.99
2017-09-03T13:35:51.370Z,73.79
2017-09-03T13:37:13.874Z,75.24
2017-09-03T13:38:36.361Z,74.43
2017-09-03T13:39:58.555Z,76.36
2017-09-03T13:41:21.072Z,77.71
2017-09-03T13:42:43.626Z,77.61
2017-09-03T13:44:06.102Z,76.93
2017-09-03T13:45:28.279Z,77.71
2017-09-03T13:46:50.202Z,77.42
2017-09-03T13:48:12.362Z,75.68
2017-09-03T13:49:34.872Z,76.26
2017-09-03T13:50:57.415Z,78.09
2017-09-03T13:52:19.691Z,79.02
2017-09-03T13:53:41.595Z,76.8
2017-09-03T13:55:04.015Z,75.74
2017-09-03T13:56:26.162Z,74.49
2017-09-03T13:57:48.332Z,75.74
2017-09-03T13:59:10.522Z,75.16
2017-09-03T14:00:33.311Z,75.45
2017-09-03T14:01:55.160Z,76.8
2017-09-03T14:03:17.704Z,76.61
2017-09-03T14:04:40.203Z,76.32
2017-09-03T14:06:03.103Z,76.32
2017-09-03T14:07:24.962Z,75.93
2017-09-03T14:08:47.143Z,77.19
2017-09-03T14:10:08.975Z,77.38
2017-09-03T14:11:31.445Z,77.86
2017-09-03T14:12:53.618Z,78.92
2017-09-03T14:14:15.981Z,78.92
2017-09-03T14:15:38.462Z,79.66
2017-09-03T14:17:00.575Z,80.62
2017-09-03T14:18:22.802Z,81.1
2017-09-03T14:19:44.736Z,80.62
2017-09-03T14:21:06.561Z,81.68
2017-09-03T14:22:28.722Z,81.77
2017-09-03T14:23:51.010Z,81.48
2017-09-03T14:25:13.192Z,81.01
2017-09-03T14:26:35.713Z,81.68
2017-09-03T14:27:58.525Z,81.48
2017-09-03T14:29:20.723Z,81.48
2017-09-03T14:30:42.911Z,82.35
2017-09-03T14:32:04.741Z,82.83
2017-09-03T14:33:27.151Z,82.79
2017-09-03T14:34:48.361Z,84.14
2017-09-03T14:36:10.534Z,84.77
2017-09-03T14:37:32.392Z,84.67
2017-09-03T14:38:54.560Z,84.97
2017-09-03T14:40:16.074Z,84.87
2017-09-03T14:41:38.254Z,85.02
2017-09-03T14:43:00.855Z,83.96
2017-09-03T14:44:23.304Z,84.29
2017-09-03T14:45:45.544Z,84.97
2017-09-03T14:47:08.085Z,82.46
2017-09-03T14:48:30.295Z,80.06
2017-09-03T14:49:52.523Z,80.73
2017-09-03T14:51:14.377Z,81.54
2017-09-03T14:52:36.902Z,81.06
2017-09-03T14:53:59.243Z,83.66
2017-09-03T14:55:21.453Z,84.53
2017-09-03T14:56:42.903Z,83.66
2017-09-03T14:58:04.433Z,81.93
2017-09-03T14:59:26.962Z,83.75
2017-09-03T15:00:48.826Z,80.77
2017-09-03T15:02:10.372Z,78.27
2017-09-03T15:03:32.552Z,77.78
2017-09-03T15:04:54.725Z,78.65
2017-09-03T15:06:16.995Z,79.81
2017-09-03T15:07:38.856Z,81.06
2017-09-03T15:09:01.037Z,80.96
2017-09-03T15:10:22.916Z,77.78
2017-09-03T15:11:45.685Z,77.5
2017-09-03T15:13:07.522Z,77.5
2017-09-03T15:14:29.697Z,76.44
2017-09-03T15:15:52.273Z,76.44
2017-09-03T15:17:14.833Z,77.11
2017-09-03T15:18:37.405Z,76.15
2017-09-03T15:19:59.582Z,77.46
2017-09-03T15:21:21.807Z,78.42
2017-09-03T15:22:43.958Z,80.92
2017-09-03T15:24:06.136Z,80.54
2017-09-03T15:25:28.014Z,79.1
2017-09-03T15:26:50.627Z,79.19
2017-09-03T15:28:12.733Z,81.75
2017-09-03T15:29:34.612Z,81.07
2017-09-03T15:30:56.822Z,81.46
2017-09-03T15:32:18.674Z,82.9
2017-09-03T15:33:40.866Z,81.94
2017-09-03T15:35:03.092Z,85.4
2017-09-03T15:36:24.973Z,85.31
2017-09-03T15:37:47.155Z,85.21
2017-09-03T15:39:09.266Z,82.81
2017-09-03T15:40:31.788Z,82.81
2017-09-03T15:41:53.970Z,83.53
2017-09-03T15:43:15.834Z,85.21
2017-09-03T15:44:38.598Z,83.58
2017-09-03T15:46:00.783Z,83.77
2017-09-03T15:47:22.664Z,85.69
2017-09-03T15:48:44.845Z,82.71
2017-09-03T15:50:07.601Z,82.52
2017-09-03T15:51:29.898Z,82.61
2017-09-03T15:52:51.892Z,82.61
2017-09-03T15:54:14.064Z,81.37
2017-09-03T15:55:37.002Z,81.27
2017-09-03T15:56:59.177Z,81.84
2017-09-03T15:58:21.386Z,82.32
2017-09-03T15:59:43.561Z,81.75
2017-09-03T16:01:06.162Z,82.61
2017-09-03T16:02:28.684Z,82.76
2017-09-03T16:03:51.194Z,82.57
2017-09-03T16:05:13.374Z,83.83
2017-09-03T16:06:35.155Z,86.52
2017-09-03T16:07:57.365Z,88.15
2017-09-03T16:09:19.701Z,90.36
2017-09-03T16:10:41.901Z,87.05
2017-09-03T16:12:04.372Z,87.24
2017-09-03T16:13:26.924Z,88.97
2017-09-03T16:14:48.806Z,91.47
2017-09-03T16:16:10.993Z,90.41
2017-09-03T16:17:33.816Z,91.18
2017-09-03T16:18:56.023Z,87.62
2017-09-03T16:20:18.545Z,89.74
2017-09-03T16:21:41.075Z,89.26
2017-09-03T16:23:03.330Z,89.21
2017-09-03T16:24:25.850Z,89.11
2017-09-03T16:25:48.730Z,88.34
2017-09-03T16:27:11.224Z,90.75
2017-09-03T16:28:32.724Z,88.24
2017-09-03T16:29:54.911Z,85.65
2017-09-03T16:31:16.767Z,85.55
2017-09-03T16:32:39.355Z,87.76
2017-09-03T16:34:01.141Z,87.33
2017-09-03T16:35:23.000Z,86.36
2017-09-03T16:36:44.517Z,86.8
2017-09-03T16:38:05.857Z,85.78
2017-09-03T16:39:27.705Z,85.6
2017-09-03T16:40:49.291Z,84.06
2017-09-03T16:42:11.822Z,83.58
2017-09-03T16:43:33.708Z,82.23
2017-09-03T16:44:56.239Z,82.23
2017-09-03T16:46:18.094Z,82.71
2017-09-03T16:47:39.933Z,81.75
2017-09-03T16:49:02.125Z,81.56
2017-09-03T16:50:24.588Z,82.61
2017-09-03T16:51:46.840Z,82.14
2017-09-03T16:53:08.467Z,82.81
2017-09-03T16:54:30.347Z,83.48
2017-09-03T16:55:53.206Z,82.67
2017-09-03T16:57:15.932Z,83.25
2017-09-03T16:58:37.882Z,84.78
2017-09-03T17:00:00.378Z,84.69
2017-09-03T17:01:22.877Z,84.21
2017-09-03T17:02:45.073Z,83.97
2017-09-03T17:04:06.993Z,84.74
2017-09-03T17:05:29.225Z,85.61
2017-09-03T17:06:51.658Z,85.71
2017-09-03T17:08:13.536Z,86.52
2017-09-03T17:09:35.725Z,86.76
2017-09-03T17:10:57.672Z,87.68
2017-09-03T17:12:20.217Z,87.96
2017-09-03T17:13:42.735Z,89.02
2017-09-03T17:15:04.929Z,89.6
2017-09-03T17:16:27.433Z,90.8
2017-09-03T17:17:50.190Z,95.89
2017-09-03T17:19:12.834Z,96.94
2017-09-03T17:20:34.699Z,98.1
2017-09-03T17:21:56.597Z,97.95
2017-09-03T17:23:19.365Z,98.62
2017-09-03T17:24:41.893Z,98.33
2017-09-03T17:26:03.756Z,99.39
2017-09-03T17:27:25.954Z,99.1
2017-09-03T17:28:48.511Z,97.71
2017-09-03T17:30:10.469Z,99.29
2017-09-03T17:31:33.004Z,99.99
2017-09-03T17:32:54.629Z,99.99
2017-09-03T17:34:16.836Z,99.99
2017-09-03T17:35:40.045Z,99.99
2017-09-03T17:37:02.264Z,99.99
2017-09-03T17:38:24.792Z,99.99
2017-09-03T17:39:47.673Z,99.99